createdAt,value
2023-04-20T00:04:11.946Z,6.8
2023-04-20T00:08:48.452Z,6.7
2023-04-20T00:13:54.822Z,6.7
2023-04-20T00:19:11.208Z,6.7
2023-04-20T00:24:17.646Z,6.6
2023-04-20T00:29:24.088Z,6.6
2023-04-20T00:34:34.499Z,6.6
2023-04-20T00:39:36.892Z,6.6
2023-04-20T00:44:33.214Z,6.6
2023-04-20T00:49:39.601Z,6.6
2023-04-20T00:54:55.037Z,6.6
2023-04-20T00:59:52.484Z,6.6
2023-04-20T01:05:09.096Z,6.6
2023-04-20T01:10:05.592Z,6.6
2023-04-20T01:15:49.642Z,6.6
2023-04-20T01:20:31.926Z,6.6
2023-04-20T01:25:58.372Z,6.6
2023-04-20T01:30:48.708Z,6.6
2023-04-20T01:35:55.685Z,6.6
2023-04-20T01:46:12.133Z,6.6
2023-04-20T01:51:14.447Z,6.6
2023-04-20T01:56:24.841Z,6.6
2023-04-20T02:01:51.280Z,6.6
2023-04-20T02:06:33.708Z,6.7
2023-04-20T02:11:40.101Z,6.7
2023-04-20T02:17:06.572Z,6.7
2023-04-20T02:21:42.830Z,6.8
2023-04-20T02:26:49.212Z,6.8
2023-04-20T02:31:55.704Z,6.8
2023-04-20T02:37:12.167Z,6.8
2023-04-20T02:42:38.584Z,6.9
2023-04-20T02:47:24.983Z,6.9
2023-04-20T02:52:31.413Z,7.0
2023-04-20T02:57:27.763Z,7.0
2023-04-20T03:02:44.287Z,7.0
2023-04-20T03:08:14.854Z,7.1
2023-04-20T03:12:57.225Z,7.1
2023-04-20T03:18:03.692Z,7.1
2023-04-20T03:23:10.132Z,7.1
2023-04-20T03:28:16.567Z,7.1
2023-04-20T03:33:22.912Z,7.1
2023-04-20T03:38:29.293Z,7.1
2023-04-20T03:43:59.738Z,7.1
2023-04-20T03:49:10.104Z,7.2
2023-04-20T03:53:48.444Z,7.2
2023-04-20T03:59:09.068Z,7.2
2023-04-20T04:04:01.737Z,7.2
2023-04-20T04:08:58.149Z,7.2
2023-04-20T04:14:14.646Z,7.2
2023-04-20T04:19:21.045Z,7.2
2023-04-20T04:24:27.389Z,7.2
2023-04-20T04:29:23.784Z,7.1
2023-04-20T04:34:30.190Z,7.1
2023-04-20T04:40:06.739Z,7.1
2023-04-20T04:44:53.104Z,7.1
2023-04-20T04:49:59.473Z,7.1
2023-04-20T04:55:05.902Z,7.1
2023-04-20T05:00:12.263Z,7.1
2023-04-20T05:05:19.365Z,7.1
2023-04-20T05:10:49.809Z,7.1
2023-04-20T05:15:32.293Z,7.1
2023-04-20T05:20:38.558Z,7.1
2023-04-20T05:25:45.031Z,7.1
2023-04-20T05:31:15.655Z,7.1
2023-04-20T05:36:22.100Z,7.1
2023-04-20T05:41:04.434Z,7.1
2023-04-20T05:46:10.935Z,7.1
2023-04-20T05:51:21.252Z,7.1
2023-04-20T05:56:23.586Z,7.1
2023-04-20T06:01:50.028Z,7.1
2023-04-20T06:06:36.381Z,7.1
2023-04-20T06:11:42.736Z,7.1
2023-04-20T06:21:55.667Z,7.2
2023-04-20T06:27:02.007Z,7.2
2023-04-20T06:32:08.413Z,7.2
2023-04-20T06:37:14.789Z,7.3
2023-04-20T06:52:33.923Z,7.4
2023-04-20T06:57:40.432Z,7.4
2023-04-20T07:02:47.093Z,7.4
2023-04-20T07:07:53.336Z,7.4
2023-04-20T07:12:59.706Z,7.5
2023-04-20T07:18:06.231Z,7.5
2023-04-20T07:23:02.667Z,7.5
2023-04-20T07:28:08.969Z,7.6
2023-04-20T07:33:49.424Z,7.6
2023-04-20T07:38:51.806Z,7.7
2023-04-20T07:43:38.115Z,7.8
2023-04-20T07:49:08.640Z,7.8
2023-04-20T07:54:15.053Z,7.9
2023-04-20T07:58:57.357Z,7.9
2023-04-20T08:04:27.985Z,8.0
2023-04-20T08:09:12.598Z,8.1
2023-04-20T08:14:30.566Z,8.2
2023-04-20T08:24:43.273Z,8.4
2023-04-20T08:29:35.780Z,8.6
2023-04-20T08:34:42.175Z,8.6
2023-04-20T08:39:48.551Z,8.7
2023-04-20T08:44:54.979Z,8.9
2023-04-20T08:50:01.322Z,9.1
2023-04-20T08:55:27.845Z,9.4
2023-04-20T09:00:38.266Z,9.6
2023-04-20T09:05:20.611Z,9.7
2023-04-20T09:10:26.949Z,9.9
2023-04-20T09:15:33.345Z,10.0
2023-04-20T09:31:16.510Z,10.8
2023-04-20T09:35:48.828Z,11.3
2023-04-20T09:46:11.609Z,11.7
2023-04-20T09:51:17.978Z,11.7
2023-04-20T09:56:48.463Z,11.7
2023-04-20T10:01:55.979Z,11.8
2023-04-20T10:06:38.222Z,11.8
2023-04-20T10:11:52.615Z,11.8
2023-04-20T10:16:40.240Z,11.8
2023-04-20T10:22:21.480Z,12.0
2023-04-20T10:27:27.864Z,12.2
2023-04-20T10:32:10.217Z,12.6
2023-04-20T10:37:36.609Z,12.9
2023-04-20T10:42:24.060Z,13.2
2023-04-20T10:47:30.490Z,13.5
2023-04-20T10:52:36.827Z,13.9
2023-04-20T10:57:43.200Z,14.2
2023-04-20T11:03:17.448Z,14.3
2023-04-20T11:07:59.544Z,14.3
2023-04-20T11:13:28.277Z,14.3
2023-04-20T11:18:14.741Z,14.2
2023-04-20T11:23:21.158Z,14.1
2023-04-20T11:33:24.078Z,13.9
2023-04-20T11:38:40.382Z,13.8
2023-04-20T11:44:06.749Z,13.7
2023-04-20T11:48:43.181Z,13.6
2023-04-20T11:54:01.187Z,13.6
2023-04-20T11:59:27.744Z,13.6
2023-04-20T12:04:14.418Z,13.5
2023-04-20T12:09:20.764Z,13.5
2023-04-20T12:14:26.860Z,13.5
2023-04-20T12:19:33.286Z,13.5
2023-04-20T12:24:39.684Z,13.4
2023-04-20T12:29:46.220Z,13.3
2023-04-20T12:34:54.182Z,13.2
2023-04-20T12:40:00.567Z,13.2
2023-04-20T12:45:06.899Z,13.2
2023-04-20T12:50:13.292Z,13.3
2023-04-20T13:00:16.117Z,13.5
2023-04-20T13:05:23.554Z,13.7
2023-04-20T13:10:40.063Z,14.0
2023-04-20T13:15:46.504Z,14.5
2023-04-20T13:20:52.848Z,14.9
2023-04-20T13:25:59.231Z,15.3
2023-04-20T13:30:55.668Z,15.7
2023-04-20T13:36:01.963Z,16.0
2023-04-20T13:41:18.361Z,16.3
2023-04-20T13:51:31.249Z,16.6
2023-04-20T13:56:37.673Z,16.7
2023-04-20T14:01:44.152Z,16.8
2023-04-20T14:06:50.408Z,16.9
2023-04-20T14:12:00.808Z,17.0
2023-04-20T14:17:03.199Z,17.2
2023-04-20T14:22:13.555Z,17.4
2023-04-20T14:27:15.944Z,17.6
2023-04-20T14:32:22.393Z,17.8
2023-04-20T14:37:18.728Z,17.8
2023-04-20T14:42:55.150Z,17.9
2023-04-20T14:47:31.487Z,17.9
2023-04-20T14:52:47.878Z,17.9
2023-04-20T14:57:54.357Z,17.8
2023-04-20T15:03:01.036Z,17.7
2023-04-20T15:08:07.127Z,17.6
2023-04-20T15:13:13.531Z,17.6
2023-04-20T15:18:20.002Z,17.6
2023-04-20T15:23:26.322Z,17.5
2023-04-20T15:28:32.881Z,17.4
2023-04-20T15:33:39.282Z,17.3
2023-04-20T15:38:45.649Z,17.2
2023-04-20T15:43:52.055Z,17.1
2023-04-20T15:49:54.568Z,17.0
2023-04-20T15:53:54.887Z,16.9
2023-04-20T15:59:11.290Z,16.8
2023-04-20T16:04:18.105Z,16.8
2023-04-20T16:09:38.114Z,16.7
2023-04-20T16:14:30.444Z,16.7
2023-04-20T16:19:40.822Z,16.6
2023-04-20T16:29:49.599Z,16.5
2023-04-20T16:40:26.552Z,16.3
2023-04-20T16:45:08.878Z,16.2
2023-04-20T16:50:35.277Z,16.0
2023-04-20T16:55:21.632Z,15.8
2023-04-20T17:00:28.093Z,15.7
2023-04-20T17:10:40.900Z,15.2
2023-04-20T17:15:47.294Z,15.0
2023-04-20T17:20:53.671Z,14.8
2023-04-20T17:26:20.078Z,14.6
2023-04-20T17:31:30.541Z,14.4
2023-04-20T17:36:12.805Z,14.3
2023-04-20T17:41:19.312Z,14.1
2023-04-20T17:46:45.763Z,13.9
2023-04-20T17:51:22.053Z,13.7
2023-04-20T17:56:38.450Z,13.5
2023-04-20T18:02:41.113Z,13.3
2023-04-20T18:07:47.318Z,13.1
2023-04-20T18:17:05.550Z,12.8
2023-04-20T18:22:36.000Z,12.7
2023-04-20T18:27:08.335Z,12.5
2023-04-20T18:32:25.035Z,12.4
2023-04-20T18:37:31.494Z,12.2
2023-04-20T18:42:37.916Z,12.0
2023-04-20T18:47:44.356Z,11.9
2023-04-20T18:53:14.753Z,11.8
2023-04-20T18:57:57.112Z,11.7
2023-04-20T19:03:03.703Z,11.5
2023-04-20T19:08:10.018Z,11.4
2023-04-20T19:13:16.419Z,11.3
2023-04-20T19:18:22.786Z,11.2
2023-04-20T19:23:53.281Z,11.1
2023-04-20T19:34:03.633Z,10.9
2023-04-20T19:38:50.178Z,10.8
2023-04-20T19:43:56.677Z,10.7
2023-04-20T19:49:03.043Z,10.6
2023-04-20T19:54:09.429Z,10.5
2023-04-20T19:59:39.872Z,10.5
2023-04-20T20:04:22.302Z,10.4
2023-04-20T20:09:28.661Z,10.3
2023-04-20T20:24:47.916Z,10.0
2023-04-20T20:29:54.261Z,10.0
2023-04-20T20:35:00.702Z,10.0
2023-04-20T20:41:19.227Z,9.9
2023-04-20T20:51:51.046Z,9.8
2023-04-20T21:00:32.656Z,9.7
2023-04-20T21:06:03.088Z,9.7
2023-04-20T21:10:45.464Z,9.7
2023-04-20T21:15:41.775Z,9.7
2023-04-20T21:20:58.172Z,9.6
2023-04-20T21:26:28.629Z,9.6
2023-04-20T21:31:00.891Z,9.6
2023-04-20T21:42:07.907Z,9.5
2023-04-20T21:46:50.183Z,9.5
2023-04-20T21:51:36.624Z,9.5
2023-04-20T21:56:43.076Z,9.4
2023-04-20T22:03:01.733Z,9.4
2023-04-20T22:06:45.835Z,9.3
2023-04-20T22:12:02.333Z,9.3
2023-04-20T22:17:08.621Z,9.2
2023-04-20T22:22:49.168Z,9.2
2023-04-20T22:27:56.527Z,9.2
2023-04-20T22:34:06.128Z,9.2
2023-04-20T22:37:58.374Z,9.2
2023-04-20T22:43:15.756Z,9.2
2023-04-20T22:48:22.122Z,9.2
2023-04-20T22:53:48.570Z,9.1
2023-04-20T22:58:34.905Z,9.1
2023-04-20T23:08:47.781Z,9.1
2023-04-20T23:14:21.825Z,9.1
2023-04-20T23:19:04.136Z,9.1
2023-04-20T23:24:10.508Z,9.1
2023-04-20T23:29:36.990Z,9.1
2023-04-20T23:34:13.258Z,9.1
2023-04-20T23:39:29.822Z,9.1
2023-04-20T23:44:36.228Z,9.1
2023-04-20T23:49:42.613Z,9.1
2023-04-20T23:54:48.960Z,9.2
2023-04-20T23:59:55.349Z,9.2
